Krkonošská 70
Location Špindlerův mlýn Start Time 6.3.2010 8:01:08
Category Závod
Distance 66,61 km Ascend 1 627,4 m Descend -1 620,2 m
Total Time 04:15:10 Moving 04:08:19 Stopped 00:06:51
Average Speed 15,7 km/h Fastest Speed 50,9 km/h Slowest Speed 0,7 km/h
Calories 4522 Average HR N/A Max HR N/A
Weather -10 °C PartClouds
Equipment
Notes sestava JB, Lauič, Pepe, Globus, Láďa Provod. Na startu bylo -10. nahoře -14, trochu vítr a sněžilo. Pak kolem Černý hory se to protrhalo a do konce svítilo slunce a bylo tak -5. Vyjeli jsme dost pomalu, ten kopec byl nekonečnej a i přes to tempo jsem se spotil jak prase, páč jsme se pěkně navlíkli. Nahoře mi pak zas byla zima, protože foukalo a bylo -15. Pepe jel pěkně, držel se s Láďou v čele, Globus tam trochu vlál vzadu a hudroval, jestli nejedem moc rychle.. Kopec na Černou h. byl taky nekonečnšj, tempo ještě pomalejší, ale všichni pořád v cajku a na lano nikdo. Přestaly mi tam jet lyže, nenasypal jsem a jel na modrej LF Rex, ale bylo to asi lyžema, protože Jenda ho tam mělk taky a jelo mu to jak klukum. Takže ve sjezdech jsem měl trochu starosti a musel je pak dojíždět. Z pražský to šlo, u Friesovek jsme předjelio 1 - Redpoint Toko (ještě na Pražský nám dávali pěknou čočku), který byli totálně kožený a měli jednoho na gumě s tartankou narvanou v hubě jak kost. Pepe začínal bejt taky medovej a Globus se taky nehnal dopředu. ten kopec nad Friesovka jsem myslel že nevylezem.... Jenda nahoře čekal, já šel za klukama,A to už jsme v dálce tak 3' před náma viděli č. 162, který nám jediný dávali (šli 30'' před náma). Po občerstvení jsme na ně měli 3', klluci mi hrubě ujeli z kopce, ale za tou ostrou pravou jsem si je dojel do kopce. Pepe tam dostal křeče, tak ho Láďa vzal na lano, já řek že jedu napřed abych měl náskok do sjezdu, Jenda jel se mnou. V tom dalším kopci jsem je viděl už jen tak 1,5' před sebou, tak říkám jendovi ať toho Laďu vystřídá a dotáhne Pepeho. Jel jsem dál, dojel tu 162 ještě před vrcholem a žařadil se za ně. Pak už jsem se jenom modlil, ať je Jenda se zavěšeným Pepem taky dojedou. A dojeli, takže vítězství o tu půlminutu, co šli před náma... No a s Globusem jsme se pěkně vyndali už v autě a večer šli ještě do města. Pěkná práce, ve 2 doma trochu unavenej:-)
Splits
Distance (km) Total Time Split Time Split Pace Split Speed Elevation Change (m)
1,00 00:05:38 00:05:38 00:05:38 10,7 78,17
2,00 00:10:21 00:04:43 00:04:43 12,7 27,41
3,00 00:15:04 00:04:43 00:04:43 12,7 55,62
4,00 00:19:20 00:04:16 00:04:16 14,1 45,29
5,00 00:24:25 00:05:05 00:05:05 11,8 34,07
6,00 00:28:53 00:04:28 00:04:28 13,4 26,88
7,00 00:36:45 00:07:52 00:07:52 7,6 101,54
8,00 00:42:45 00:06:00 00:06:00 10,0 58,09
9,00 00:45:32 00:02:47 00:02:47 21,6 -20,89
10,00 00:49:54 00:04:22 00:04:22 13,7 -8,36
11,00 00:54:37 00:04:43 00:04:43 12,7 32,05
12,00 00:59:44 00:05:07 00:05:07 11,7 41,49
13,00 01:03:44 00:04:00 00:04:00 15,0 -44,33
14,00 01:05:35 00:01:51 00:01:51 32,4 -47,87
15,00 01:08:27 00:02:52 00:02:52 20,9 -13,01
16,00 01:11:07 00:02:40 00:02:40 22,5 -40,41
17,00 01:17:48 00:06:41 00:06:41 9,0 70,65
18,00 01:21:46 00:03:58 00:03:58 15,1 1,38
19,00 01:24:15 00:02:29 00:02:29 24,2 -36,27
20,00 01:28:36 00:04:21 00:04:21 13,8 21,58
21,00 01:30:48 00:02:12 00:02:12 27,3 -56,69
22,00 01:33:58 00:03:10 00:03:10 18,9 -3,71
23,00 01:37:28 00:03:30 00:03:30 17,1 -0,54
24,00 01:41:28 00:04:00 00:04:00 15,0 29,33
25,00 01:47:02 00:05:34 00:05:34 10,8 -0,91
26,00 01:52:49 00:05:47 00:05:47 10,4 55,92
27,00 01:55:57 00:03:08 00:03:08 19,1 -21,44
28,00 01:58:25 00:02:28 00:02:28 24,3 -25,21
29,00 02:01:51 00:03:26 00:03:26 17,5 13,34
30,00 02:05:27 00:03:36 00:03:36 16,7 -25,89
31,00 02:07:38 00:02:11 00:02:11 27,5 -47,02
32,00 02:09:03 00:01:25 00:01:25 42,4 -110,65
33,00 02:12:44 00:03:41 00:03:41 16,3 16,21
34,00 02:18:48 00:06:04 00:06:04 9,9 87,61
35,00 02:26:16 00:07:28 00:07:28 8,0 92,03
36,00 02:33:07 00:06:51 00:06:51 8,8 84,91
37,00 02:37:19 00:04:12 00:04:12 14,3 1,21
38,00 02:39:38 00:02:19 00:02:19 25,9 -53,09
39,00 02:41:25 00:01:47 00:01:47 33,6 -77,72
40,00 02:45:23 00:03:58 00:03:58 15,1 23,52
41,00 02:49:29 00:04:06 00:04:06 14,6 -32,79
42,00 02:52:59 00:03:30 00:03:30 17,1 5,73
43,00 02:55:45 00:02:46 00:02:46 21,7 -16,89
44,00 03:00:55 00:05:10 00:05:10 11,6 43,36
45,00 03:05:07 00:04:12 00:04:12 14,3 28,97
46,00 03:08:27 00:03:20 00:03:20 18,0 5,74
47,00 03:11:57 00:03:30 00:03:30 17,1 -19,79
48,00 03:15:51 00:03:54 00:03:54 15,4 -6,98
49,00 03:19:13 00:03:22 00:03:22 17,8 -20,81
50,00 03:23:32 00:04:19 00:04:19 13,9 18,86
51,00 03:27:49 00:04:17 00:04:17 14,0 24,40
52,00 03:36:12 00:08:23 00:08:23 7,2 106,38
53,00 03:38:44 00:02:32 00:02:32 23,7 -54,79
54,00 03:41:52 00:03:08 00:03:08 19,1 -19,43
55,00 03:44:50 00:02:58 00:02:58 20,2 -39,30
56,00 03:46:43 00:01:53 00:01:53 31,9 -56,51
57,00 03:48:29 00:01:46 00:01:46 34,0 -69,56
58,00 03:50:20 00:01:51 00:01:51 32,4 -46,86
59,00 03:53:53 00:03:33 00:03:33 16,9 -5,88
60,00 03:56:04 00:02:11 00:02:11 27,5 -60,88
61,00 03:59:08 00:03:04 00:03:04 19,6 4,70
62,00 04:02:56 00:03:48 00:03:48 15,8 26,32
63,00 04:06:52 00:03:56 00:03:56 15,3 5,29
64,00 04:09:10 00:02:18 00:02:18 26,1 -37,14
65,00 04:11:23 00:02:13 00:02:13 27,1 -47,57
66,00 04:13:23 00:02:00 00:02:00 30,0 -46,94